createdAt,value
2023-02-12T00:01:33.108Z,5.80
2023-02-12T00:05:00.153Z,5.30
2023-02-12T00:08:27.187Z,6.50
2023-02-12T00:11:54.054Z,6.50
2023-02-12T00:15:21.635Z,5.30
2023-02-12T00:18:51.367Z,4.50
2023-02-12T00:22:19.407Z,4.40
2023-02-12T00:25:47.668Z,4.70
2023-02-12T00:29:14.555Z,4.60
2023-02-12T00:32:41.210Z,5.70
2023-02-12T00:36:10.711Z,7.30
2023-02-12T00:39:41.844Z,9.90
2023-02-12T00:43:09.026Z,8.40
2023-02-12T00:46:35.963Z,8.00
2023-02-12T00:50:03.017Z,6.10
2023-02-12T00:53:30.603Z,5.40
2023-02-12T00:56:58.226Z,4.80
2023-02-12T01:00:30.590Z,5.40
2023-02-12T01:03:58.513Z,4.70
2023-02-12T01:07:27.416Z,4.20
2023-02-12T01:11:00.809Z,4.40
2023-02-12T01:14:28.631Z,4.40
2023-02-12T01:17:56.650Z,5.00
2023-02-12T01:21:26.866Z,5.60
2023-02-12T01:24:56.806Z,6.50
2023-02-12T01:28:23.453Z,8.50
2023-02-12T01:31:50.467Z,9.40
2023-02-12T01:35:17.601Z,5.80
2023-02-12T01:38:45.750Z,5.00
2023-02-12T01:42:19.158Z,6.00
2023-02-12T01:45:55.003Z,8.10
2023-02-12T01:49:25.699Z,8.40
2023-02-12T01:52:57.653Z,7.60
2023-02-12T01:56:26.548Z,8.60
2023-02-12T01:59:57.994Z,9.20
2023-02-12T02:03:26.734Z,9.50
2023-02-12T02:06:58.546Z,10.40
2023-02-12T02:10:28.200Z,8.40
2023-02-12T02:14:14.179Z,8.00
2023-02-12T02:17:54.097Z,7.80
2023-02-12T02:22:02.324Z,6.60
2023-02-12T02:25:52.017Z,7.20
2023-02-12T02:29:47.840Z,6.80
2023-02-12T02:33:29.578Z,8.00
2023-02-12T02:37:04.838Z,5.50
2023-02-12T02:40:41.697Z,6.30
2023-02-12T02:44:17.630Z,6.40
2023-02-12T02:47:49.690Z,6.30
2023-02-12T02:51:23.856Z,6.20
2023-02-12T02:54:55.900Z,6.60
2023-02-12T02:58:30.647Z,6.50
2023-02-12T03:02:08.593Z,6.30
2023-02-12T03:05:39.738Z,6.80
2023-02-12T03:09:14.000Z,7.80
2023-02-12T03:12:50.972Z,8.80
2023-02-12T03:16:24.790Z,9.70
2023-02-12T03:19:57.602Z,9.50
2023-02-12T03:23:29.364Z,9.90
2023-02-12T03:27:04.532Z,9.80
2023-02-12T03:30:41.971Z,9.50
2023-02-12T03:34:15.054Z,9.10
2023-02-12T03:37:47.916Z,9.60
2023-02-12T03:41:22.529Z,8.50
2023-02-12T03:44:59.071Z,9.10
2023-02-12T03:48:36.120Z,9.30
2023-02-12T03:52:06.054Z,8.80
2023-02-12T03:55:38.210Z,8.90
2023-02-12T03:59:06.898Z,10.10
2023-02-12T04:02:34.214Z,9.60
2023-02-12T04:06:03.870Z,9.70
2023-02-12T04:09:32.769Z,9.60
2023-02-12T04:13:13.156Z,9.30
2023-02-12T04:16:48.175Z,9.50
2023-02-12T04:20:24.880Z,10.00
2023-02-12T04:24:03.592Z,10.20
2023-02-12T04:27:44.800Z,10.50
2023-02-12T04:31:22.036Z,11.20
2023-02-12T04:35:01.707Z,12.00
2023-02-12T04:38:35.199Z,13.00
2023-02-12T04:45:35.079Z,14.90
2023-02-12T04:49:06.867Z,14.40
2023-02-12T04:52:36.572Z,14.20
2023-02-12T04:56:05.320Z,13.20
2023-02-12T04:59:40.239Z,12.20
2023-02-12T05:03:10.537Z,11.90
2023-02-12T05:06:40.411Z,11.90
2023-02-12T05:10:11.031Z,12.70
2023-02-12T05:13:40.360Z,14.50
2023-02-12T05:17:08.886Z,13.90
2023-02-12T05:20:37.069Z,16.00
2023-02-12T05:24:04.779Z,15.90
2023-02-12T05:27:32.951Z,14.70
2023-02-12T05:31:03.621Z,15.20
2023-02-12T05:34:33.014Z,17.20
2023-02-12T05:38:00.426Z,17.30
2023-02-12T05:41:28.849Z,20.00
2023-02-12T05:44:58.867Z,17.10
2023-02-12T05:48:27.132Z,17.40
2023-02-12T05:51:55.583Z,16.20
2023-02-12T05:55:23.120Z,17.40
2023-02-12T05:58:56.524Z,14.40
2023-02-12T06:02:24.178Z,15.70
2023-02-12T06:06:00.159Z,14.70
2023-02-12T06:09:30.650Z,15.80
2023-02-12T06:12:59.379Z,14.20
2023-02-12T06:16:28.833Z,14.80
2023-02-12T06:19:56.785Z,13.30
2023-02-12T06:23:24.735Z,13.90
2023-02-12T06:26:52.882Z,15.70
2023-02-12T06:30:20.953Z,13.90
2023-02-12T06:33:49.087Z,14.40
2023-02-12T06:37:16.087Z,13.50
2023-02-12T06:40:43.449Z,13.60
2023-02-12T06:44:12.792Z,14.10
2023-02-12T06:47:39.379Z,14.40
2023-02-12T06:51:12.335Z,14.60
2023-02-12T06:54:39.362Z,14.10
2023-02-12T06:58:07.391Z,14.80
2023-02-12T07:01:34.221Z,13.90
2023-02-12T07:05:01.794Z,15.00
2023-02-12T07:08:28.569Z,14.50
2023-02-12T07:11:56.791Z,13.20
2023-02-12T07:15:28.596Z,12.70
2023-02-12T07:18:55.832Z,13.30
2023-02-12T07:22:23.138Z,13.80
2023-02-12T07:26:00.295Z,13.80
2023-02-12T07:29:27.745Z,13.00
2023-02-12T07:32:54.646Z,13.30
2023-02-12T07:36:25.615Z,13.50
2023-02-12T07:39:52.663Z,13.80
2023-02-12T07:43:19.413Z,17.30
2023-02-12T07:46:48.679Z,17.40
2023-02-12T07:50:18.409Z,18.50
2023-02-12T07:53:46.370Z,20.30
2023-02-12T07:57:13.857Z,19.20
2023-02-12T08:00:40.604Z,19.90
2023-02-12T08:04:11.459Z,17.90
2023-02-12T08:07:38.759Z,17.90
2023-02-12T08:11:07.000Z,17.10
2023-02-12T08:14:34.005Z,17.60
2023-02-12T08:18:01.861Z,18.60
2023-02-12T08:21:30.393Z,20.00
2023-02-12T08:24:58.860Z,18.80
2023-02-12T08:28:26.050Z,18.00
2023-02-12T08:31:57.279Z,18.40
2023-02-12T08:35:25.198Z,19.50
2023-02-12T08:38:52.382Z,19.10
2023-02-12T08:42:25.910Z,21.90
2023-02-12T08:45:52.490Z,19.60
2023-02-12T08:49:22.060Z,20.10
2023-02-12T08:52:49.266Z,17.90
2023-02-12T08:56:20.153Z,19.80
2023-02-12T08:59:47.384Z,24.00
2023-02-12T09:03:14.674Z,23.10
2023-02-12T09:06:41.701Z,22.40
2023-02-12T09:10:12.469Z,24.00
2023-02-12T09:13:40.273Z,23.00
2023-02-12T09:17:07.283Z,20.10
2023-02-12T09:20:38.701Z,20.00
2023-02-12T09:24:06.285Z,17.70
2023-02-12T09:27:33.761Z,14.70
2023-02-12T09:31:06.256Z,12.30
2023-02-12T09:34:35.583Z,10.80
2023-02-12T09:38:02.527Z,8.60
2023-02-12T09:42:11.720Z,8.40
2023-02-12T09:45:45.245Z,7.50
2023-02-12T09:49:19.020Z,8.70
2023-02-12T09:52:48.693Z,9.50
2023-02-12T09:56:22.438Z,9.60
2023-02-12T09:59:54.152Z,10.20
2023-02-12T10:03:21.400Z,12.50
2023-02-12T10:06:57.679Z,11.10
2023-02-12T10:10:44.026Z,13.70
2023-02-12T10:14:46.279Z,11.40
2023-02-12T10:18:37.512Z,11.80
2023-02-12T10:22:15.276Z,12.00
2023-02-12T10:25:54.057Z,11.30
2023-02-12T10:29:24.811Z,12.10
2023-02-12T10:32:56.280Z,12.80
2023-02-12T10:36:36.085Z,11.10
2023-02-12T10:40:06.539Z,11.20
2023-02-12T10:43:34.046Z,13.30
2023-02-12T10:47:02.056Z,12.10
2023-02-12T10:50:43.677Z,12.40
2023-02-12T10:54:35.952Z,12.20
2023-02-12T10:58:19.287Z,11.10
2023-02-12T11:01:51.266Z,11.60
2023-02-12T11:05:27.331Z,12.50
2023-02-12T11:08:54.915Z,12.60
2023-02-12T11:12:31.708Z,12.70
2023-02-12T11:16:02.305Z,14.10
2023-02-12T11:19:36.555Z,13.90
2023-02-12T11:23:08.559Z,15.40
2023-02-12T11:26:36.677Z,17.20
2023-02-12T11:30:19.764Z,16.10
2023-02-12T11:33:53.726Z,15.40
2023-02-12T11:37:21.862Z,16.30
2023-02-12T11:40:49.831Z,17.00
2023-02-12T11:44:25.347Z,16.30
2023-02-12T11:47:53.836Z,16.80
2023-02-12T11:51:31.578Z,18.00
2023-02-12T11:55:04.476Z,17.70
2023-02-12T11:58:37.169Z,16.10
2023-02-12T12:02:19.905Z,17.20
2023-02-12T12:05:52.426Z,19.30
2023-02-12T12:09:27.426Z,17.10
2023-02-12T12:12:58.924Z,18.00
2023-02-12T12:16:58.128Z,17.30
2023-02-12T12:20:31.299Z,18.80
2023-02-12T12:24:05.764Z,20.20
2023-02-12T12:27:59.476Z,20.20
2023-02-12T12:31:31.722Z,21.60
2023-02-12T12:34:58.070Z,20.40
2023-02-12T12:38:40.940Z,19.40
2023-02-12T12:42:45.538Z,20.10
2023-02-12T12:46:33.467Z,20.10
2023-02-12T12:50:23.128Z,18.90
2023-02-12T12:54:03.631Z,19.00
2023-02-12T12:57:45.173Z,18.90
2023-02-12T13:01:45.765Z,17.30
2023-02-12T13:05:48.636Z,17.20
2023-02-12T13:09:38.590Z,18.50
2023-02-12T13:13:17.928Z,17.50
2023-02-12T13:16:51.457Z,18.40
2023-02-12T13:20:28.464Z,17.50
2023-02-12T13:24:01.391Z,17.70
2023-02-12T13:27:34.538Z,18.40
2023-02-12T13:31:01.386Z,17.90
2023-02-12T13:34:32.547Z,19.50
2023-02-12T13:38:01.805Z,18.10
2023-02-12T13:41:30.226Z,20.40
2023-02-12T13:45:07.982Z,21.10
2023-02-12T13:48:55.014Z,22.70
2023-02-12T13:52:30.664Z,25.10
2023-02-12T13:56:21.012Z,29.20
2023-02-12T13:59:50.642Z,35.60
2023-02-12T14:03:17.953Z,33.80
2023-02-12T14:06:55.992Z,32.10
2023-02-12T14:10:31.293Z,26.70
2023-02-12T14:14:00.146Z,24.70
2023-02-12T14:18:07.634Z,26.30
2023-02-12T14:21:42.515Z,24.20
2023-02-12T14:25:34.059Z,26.30
2023-02-12T14:29:04.813Z,25.80
2023-02-12T14:33:02.134Z,22.10
2023-02-12T14:36:44.199Z,21.50
2023-02-12T14:40:47.089Z,20.40
2023-02-12T14:44:56.514Z,17.80
2023-02-12T14:48:48.984Z,18.70
2023-02-12T14:52:24.976Z,18.40
2023-02-12T14:55:52.703Z,16.30
2023-02-12T14:59:22.660Z,17.60
2023-02-12T15:02:55.625Z,16.80
2023-02-12T15:06:28.628Z,15.10
2023-02-12T15:10:00.799Z,14.40
2023-02-12T15:13:34.321Z,13.90
2023-02-12T15:17:04.986Z,12.70
2023-02-12T15:20:36.843Z,12.30
2023-02-12T15:24:08.861Z,12.70
2023-02-12T15:27:35.687Z,12.70
2023-02-12T15:31:04.869Z,13.70
2023-02-12T15:34:38.247Z,12.40
2023-02-12T15:41:42.128Z,12.60
2023-02-12T15:45:25.412Z,13.80
2023-02-12T15:48:51.917Z,13.50
2023-02-12T15:52:24.997Z,13.50
2023-02-12T15:55:57.583Z,12.90
2023-02-12T15:59:30.341Z,13.60
2023-02-12T16:03:07.941Z,13.80
2023-02-12T16:06:39.269Z,13.60
2023-02-12T16:10:08.484Z,14.30
2023-02-12T16:13:38.699Z,14.00
2023-02-12T16:17:19.408Z,16.70
2023-02-12T16:20:47.059Z,18.10
2023-02-12T16:24:27.544Z,19.90
2023-02-12T16:28:00.182Z,17.70
2023-02-12T16:31:29.413Z,14.00
2023-02-12T16:35:05.769Z,15.40
2023-02-12T16:38:48.321Z,14.40
2023-02-12T16:42:20.384Z,13.20
2023-02-12T16:45:48.077Z,15.20
2023-02-12T16:49:18.761Z,21.50
2023-02-12T16:52:46.010Z,19.10
2023-02-12T16:56:21.408Z,17.00
2023-02-12T16:59:48.514Z,23.20
2023-02-12T17:03:20.838Z,16.90
2023-02-12T17:06:47.848Z,14.50
2023-02-12T17:10:17.819Z,11.50
2023-02-12T17:13:44.882Z,11.80
2023-02-12T17:17:12.460Z,12.10
2023-02-12T17:20:39.847Z,13.00
2023-02-12T17:24:09.934Z,13.60
2023-02-12T17:27:38.180Z,13.00
2023-02-12T17:31:06.609Z,12.80
2023-02-12T17:34:46.597Z,13.90
2023-02-12T17:38:15.379Z,13.90
2023-02-12T17:41:42.331Z,17.80
2023-02-12T17:45:10.786Z,19.00
2023-02-12T17:48:37.259Z,20.90
2023-02-12T17:52:07.199Z,21.30
2023-02-12T17:55:40.289Z,22.60
2023-02-12T17:59:07.792Z,25.00
2023-02-12T18:02:34.742Z,28.60
2023-02-12T18:06:01.585Z,26.30
2023-02-12T18:09:28.145Z,24.00
2023-02-12T18:12:55.401Z,21.00
2023-02-12T18:16:23.282Z,18.00
2023-02-12T18:19:52.028Z,18.90
2023-02-12T18:23:19.845Z,17.50
2023-02-12T18:26:47.112Z,16.70
2023-02-12T18:30:15.658Z,17.00
2023-02-12T18:33:44.166Z,16.10
2023-02-12T18:37:13.733Z,16.20
2023-02-12T18:40:44.526Z,18.10
2023-02-12T18:44:18.878Z,17.10
2023-02-12T18:47:47.694Z,17.80
2023-02-12T18:51:18.131Z,16.00
2023-02-12T18:54:48.064Z,17.50
2023-02-12T18:58:17.075Z,16.60
2023-02-12T19:01:43.941Z,18.40
2023-02-12T19:05:12.914Z,20.10
2023-02-12T19:08:42.162Z,18.70
2023-02-12T19:12:11.030Z,17.50
2023-02-12T19:15:42.909Z,17.80
2023-02-12T19:19:12.640Z,19.50
2023-02-12T19:22:40.836Z,20.40
2023-02-12T19:26:10.360Z,19.30
2023-02-12T19:29:36.989Z,19.10
2023-02-12T19:33:04.309Z,20.80
2023-02-12T19:36:35.480Z,19.50
2023-02-12T19:40:03.200Z,18.10
2023-02-12T19:43:30.184Z,15.50
2023-02-12T19:46:59.800Z,16.40
2023-02-12T19:50:26.416Z,16.00
2023-02-12T19:53:53.653Z,13.40
2023-02-12T19:57:24.011Z,14.70
2023-02-12T20:00:57.098Z,14.60
2023-02-12T20:04:25.677Z,13.30
2023-02-12T20:07:58.074Z,13.10
2023-02-12T20:11:29.092Z,13.50
2023-02-12T20:15:01.238Z,13.40
2023-02-12T20:18:28.560Z,14.80
2023-02-12T20:21:57.796Z,15.40
2023-02-12T20:25:25.993Z,18.30
2023-02-12T20:28:53.612Z,18.70
2023-02-12T20:32:22.382Z,18.60
2023-02-12T20:35:59.710Z,16.10
2023-02-12T20:39:28.568Z,16.00
2023-02-12T20:42:55.805Z,16.10
2023-02-12T20:46:30.606Z,14.70
2023-02-12T20:49:59.327Z,14.90
2023-02-12T20:53:35.380Z,16.20
2023-02-12T20:57:07.193Z,15.00
2023-02-12T21:00:35.508Z,13.90
2023-02-12T21:04:06.264Z,13.10
2023-02-12T21:07:36.372Z,13.90
2023-02-12T21:11:05.652Z,13.00
2023-02-12T21:14:34.432Z,12.90
2023-02-12T21:18:04.092Z,13.40
2023-02-12T21:21:33.857Z,14.60
2023-02-12T21:25:01.752Z,13.50
2023-02-12T21:28:29.745Z,13.20
2023-02-12T21:32:01.883Z,13.10
2023-02-12T21:35:29.361Z,15.70
2023-02-12T21:38:57.665Z,19.20
2023-02-12T21:42:30.253Z,18.30
2023-02-12T21:45:59.087Z,14.90
2023-02-12T21:49:28.548Z,14.90
2023-02-12T21:52:56.910Z,13.10
2023-02-12T21:56:29.596Z,13.50
2023-02-12T21:59:59.341Z,11.80
2023-02-12T22:03:31.201Z,12.00
2023-02-12T22:07:03.771Z,12.20
2023-02-12T22:10:34.994Z,10.50
2023-02-12T22:14:04.667Z,10.60
2023-02-12T22:17:35.557Z,11.50
2023-02-12T22:21:05.687Z,12.00
2023-02-12T22:24:33.353Z,10.50
2023-02-12T22:28:02.256Z,11.70
2023-02-12T22:31:32.900Z,10.50
2023-02-12T22:34:59.687Z,11.40
2023-02-12T22:38:26.947Z,12.20
2023-02-12T22:41:54.702Z,11.20
2023-02-12T22:45:21.825Z,11.50
2023-02-12T22:48:49.914Z,12.20
2023-02-12T22:52:16.821Z,12.30
2023-02-12T22:55:45.487Z,12.60
2023-02-12T22:59:14.061Z,11.60
2023-02-12T23:02:42.361Z,10.90
2023-02-12T23:06:12.162Z,10.50
2023-02-12T23:09:41.754Z,11.60
2023-02-12T23:13:21.285Z,11.90
2023-02-12T23:16:55.891Z,10.90
2023-02-12T23:20:23.998Z,11.60
2023-02-12T23:23:50.968Z,10.60
2023-02-12T23:27:23.892Z,10.60
2023-02-12T23:30:54.377Z,10.30
2023-02-12T23:34:21.588Z,10.50
2023-02-12T23:37:48.263Z,11.00
2023-02-12T23:41:15.096Z,10.90
2023-02-12T23:44:42.105Z,11.00
2023-02-12T23:48:09.035Z,10.70
2023-02-12T23:51:36.944Z,10.70
2023-02-12T23:55:16.621Z,11.10
2023-02-12T23:58:43.735Z,12.00
